Ausonia, Argentina
Current Conditions -  °F | °C
As of 4:00 PM on Tuesday 21 Oct 2014 (Local Time) from SAOC Reporting Station
Clear Clear  
Wind Chill: 88°   Ceiling: Unl
Heat Index: 88°   Visibility: 6mi
Dew Point: 57°   Wind: 31mph
Humidity: 35%   Direction: 360°N
Pressure: 29.85"   Gusts: 44mph
Location:  32.35°S, 63.22°W
Report Text: SAOC 211900Z 36027G38KT CAVOK 31/14 Q1011
Loading
Personal Weather Stations






























Interactive Weather Map New forecast layout! Learn more

10-Day Weather Forecast

Advertisements
Track Severe Weather on mobile